createdAt,value
2022-09-23T00:00:29.453Z,12968
2022-09-23T00:05:41.320Z,13021
2022-09-23T00:10:53.054Z,13028
2022-09-23T00:16:04.992Z,13031
2022-09-23T00:21:16.799Z,13036
2022-09-23T00:26:28.536Z,13040
2022-09-23T00:31:40.335Z,13052
2022-09-23T00:36:52.089Z,13064
2022-09-23T00:42:03.774Z,12966
2022-09-23T00:47:15.456Z,13008
2022-09-23T00:52:27.096Z,13017
2022-09-23T00:57:38.812Z,13010
2022-09-23T01:02:50.928Z,13003
2022-09-23T01:08:02.920Z,13012
2022-09-23T01:13:14.716Z,13035
2022-09-23T01:18:26.499Z,13057
2022-09-23T01:23:38.201Z,13037
2022-09-23T01:28:50.112Z,13062
2022-09-23T01:34:01.874Z,13082
2022-09-23T01:39:13.568Z,13056
2022-09-23T01:44:25.343Z,13013
2022-09-23T01:49:37.746Z,13038
2022-09-23T01:54:49.138Z,12994
2022-09-23T02:00:01.165Z,12928
2022-09-23T02:05:12.895Z,13097
2022-09-23T02:10:24.501Z,13058
2022-09-23T02:15:36.330Z,13001
2022-09-23T02:20:48.030Z,13018
2022-09-23T02:25:59.542Z,12977
2022-09-23T02:31:11.355Z,13050
2022-09-23T02:36:23.178Z,13018
2022-09-23T02:41:34.872Z,12998
2022-09-23T02:46:46.560Z,12987
2022-09-23T02:51:58.211Z,12966
2022-09-23T02:57:09.880Z,12968
2022-09-23T03:02:21.758Z,12964
2022-09-23T03:07:33.426Z,13018
2022-09-23T03:12:45.119Z,12971
2022-09-23T03:17:56.795Z,12968
2022-09-23T03:23:08.344Z,13042
2022-09-23T03:28:20.023Z,13035
2022-09-23T03:33:31.806Z,13029
2022-09-23T03:38:43.507Z,13032
2022-09-23T03:43:55.315Z,12924
2022-09-23T03:49:07.013Z,13114
2022-09-23T03:54:18.661Z,13049
2022-09-23T03:59:30.429Z,13088
2022-09-23T04:04:42.081Z,13046
2022-09-23T04:09:53.663Z,13017
2022-09-23T04:15:05.502Z,13140
2022-09-23T04:20:17.341Z,13098
2022-09-23T04:25:29.265Z,12970
2022-09-23T04:30:40.968Z,13092
2022-09-23T04:35:52.772Z,13074
2022-09-23T04:41:04.640Z,13093
2022-09-23T04:46:16.687Z,13093
2022-09-23T04:51:28.741Z,13026
2022-09-23T04:56:40.461Z,13069
2022-09-23T05:01:52.542Z,13072
2022-09-23T05:07:04.464Z,12973
2022-09-23T05:12:16.406Z,13126
2022-09-23T05:17:28.316Z,13112
2022-09-23T05:22:40.160Z,13086
2022-09-23T05:27:52.078Z,13102
2022-09-23T05:33:03.863Z,13087
2022-09-23T05:38:15.879Z,13106
2022-09-23T05:43:27.605Z,13115
2022-09-23T05:48:39.603Z,13099
2022-09-23T05:53:51.758Z,13099
2022-09-23T05:59:03.770Z,13104
2022-09-23T06:04:15.756Z,13100
2022-09-23T06:09:27.671Z,13147
2022-09-23T06:14:45.924Z,13050
2022-09-23T06:19:57.924Z,13095
2022-09-23T06:25:09.847Z,13012
2022-09-23T06:30:21.670Z,13113
2022-09-23T06:35:33.611Z,13114
2022-09-23T06:40:45.464Z,13158
2022-09-23T06:45:57.477Z,13051
2022-09-23T06:51:09.478Z,13195
2022-09-23T06:56:21.591Z,13170
2022-09-23T07:01:33.875Z,13082
2022-09-23T07:06:46.352Z,13164
2022-09-23T07:11:58.256Z,13137
2022-09-23T07:17:10.305Z,13167
2022-09-23T07:22:22.486Z,13116
2022-09-23T07:27:34.553Z,13173
2022-09-23T07:32:49.601Z,13193
2022-09-23T07:38:01.015Z,13061
2022-09-23T07:43:13.122Z,13237
2022-09-23T07:48:25.291Z,13159
2022-09-23T07:53:37.305Z,13129
2022-09-23T07:58:49.493Z,13202
2022-09-23T08:04:01.648Z,13150
2022-09-23T08:09:13.778Z,13199
2022-09-23T08:14:25.942Z,13174
2022-09-23T08:19:37.975Z,13200
2022-09-23T08:24:53.039Z,13131
2022-09-23T08:30:10.281Z,13214
2022-09-23T08:35:22.476Z,13148
2022-09-23T08:40:34.779Z,13144
2022-09-23T08:45:47.046Z,13138
2022-09-23T08:50:58.933Z,13184
2022-09-23T08:56:11.048Z,13119
2022-09-23T09:01:23.153Z,13161
2022-09-23T09:06:53.819Z,13132
2022-09-23T09:12:42.253Z,13177
2022-09-23T09:17:54.185Z,13213
2022-09-23T09:23:06.190Z,13175
2022-09-23T09:28:18.466Z,13064
2022-09-23T09:33:36.441Z,13083
2022-09-23T09:38:48.491Z,13152
2022-09-23T09:44:00.936Z,13155
2022-09-23T09:49:13.062Z,13078
2022-09-23T09:54:25.057Z,13026
2022-09-23T09:59:37.370Z,13154
2022-09-23T10:04:49.613Z,13124
2022-09-23T10:10:32.192Z,13110
2022-09-23T10:15:45.500Z,13104
2022-09-23T10:21:02.824Z,13125
2022-09-23T10:26:17.364Z,13145
2022-09-23T10:31:29.601Z,13093
2022-09-23T10:36:44.994Z,13132
2022-09-23T10:41:56.304Z,13123
2022-09-23T10:47:08.648Z,13119
2022-09-23T10:52:20.971Z,13191
2022-09-23T10:57:32.874Z,13097
2022-09-23T11:02:45.689Z,13255
2022-09-23T11:07:58.356Z,13260
2022-09-23T11:13:12.465Z,13469
2022-09-23T11:18:26.870Z,14721
2022-09-23T11:23:41.997Z,14712
2022-09-23T11:28:56.731Z,13763
2022-09-23T11:34:10.795Z,13210
2022-09-23T11:39:24.074Z,12981
2022-09-23T11:44:37.393Z,13426
2022-09-23T11:49:50.309Z,13730
2022-09-23T11:55:20.672Z,13223
2022-09-23T12:00:33.006Z,13095
2022-09-23T12:05:45.880Z,13027
2022-09-23T12:16:10.376Z,12892
2022-09-23T12:21:51.223Z,12999
2022-09-23T12:37:19.213Z,14017
2022-09-23T12:42:32.587Z,13693
2022-09-23T12:47:45.670Z,13176
2022-09-23T12:52:59.235Z,13276
2022-09-23T12:58:12.462Z,13062
2022-09-23T13:08:35.650Z,13010
2022-09-23T13:13:48.205Z,13199
2022-09-23T13:19:00.431Z,13523
2022-09-23T13:34:32.466Z,13083
2022-09-23T13:39:44.104Z,13602
2022-09-23T13:50:05.837Z,13097
2022-09-23T13:55:17.673Z,13032
2022-09-23T14:00:29.614Z,12896
2022-09-23T14:21:12.241Z,13182
2022-09-23T14:26:24.640Z,12925
2022-09-23T14:31:37.050Z,13022
2022-09-23T14:42:00.127Z,12975
2022-09-23T14:47:12.799Z,13011
2022-09-23T14:52:24.822Z,12885
2022-09-23T14:57:36.787Z,13101
2022-09-23T15:02:49.113Z,13094
2022-09-23T15:08:01.188Z,13058
2022-09-23T15:13:13.193Z,13215
2022-09-23T15:18:25.617Z,12979
2022-09-23T15:33:57.667Z,12884
2022-09-23T15:39:36.159Z,12943
2022-09-23T15:44:44.131Z,13076
2022-09-23T15:49:56.119Z,12974
2022-09-23T15:55:08.241Z,12984
2022-09-23T16:00:20.190Z,13083
2022-09-23T16:05:32.562Z,13084
2022-09-23T16:10:44.858Z,13178
2022-09-23T16:15:57.118Z,12936
2022-09-23T16:31:30.058Z,13072
2022-09-23T16:36:42.244Z,13046
2022-09-23T16:41:54.761Z,12976
2022-09-23T16:47:07.038Z,12919
2022-09-23T16:52:19.283Z,12991
2022-09-23T17:08:21.188Z,12954
2022-09-23T17:13:34.163Z,12997
2022-09-23T17:18:46.313Z,12964
2022-09-23T17:23:58.441Z,13003
2022-09-23T17:34:20.434Z,13032
2022-09-23T17:39:32.317Z,12921
2022-09-23T17:44:44.169Z,12963
2022-09-23T17:55:06.088Z,13037
2022-09-23T18:00:18.246Z,13002
2022-09-23T18:10:40.465Z,13019
2022-09-23T18:15:52.764Z,13015
2022-09-23T18:21:05.256Z,13010
2022-09-23T18:26:17.667Z,13004
2022-09-23T18:31:30.154Z,13058
2022-09-23T18:36:42.597Z,13120
2022-09-23T18:41:54.574Z,13094
2022-09-23T18:47:07.599Z,13042
2022-09-23T18:52:26.261Z,13048
2022-09-23T18:57:43.514Z,13037
2022-09-23T19:02:59.138Z,13062
2022-09-23T19:08:13.094Z,13032
2022-09-23T19:13:25.431Z,12923
2022-09-23T19:18:39.544Z,13094
2022-09-23T19:23:52.991Z,13023
2022-09-23T19:29:06.080Z,12973
2022-09-23T19:34:18.138Z,12984
2022-09-23T19:39:29.749Z,13001
2022-09-23T19:44:42.562Z,13012
2022-09-23T19:49:54.821Z,12953
2022-09-23T19:55:07.788Z,13108
2022-09-23T20:00:20.784Z,13045
2022-09-23T20:05:39.102Z,13045
2022-09-23T20:10:51.103Z,13029
2022-09-23T20:16:03.367Z,12992
2022-09-23T20:21:15.526Z,13002
2022-09-23T20:26:27.487Z,13016
2022-09-23T20:31:39.442Z,13018
2022-09-23T20:36:51.787Z,12999
2022-09-23T20:42:03.869Z,13005
2022-09-23T20:47:16.122Z,12994
2022-09-23T20:52:27.887Z,12999
2022-09-23T20:57:39.528Z,13013
2022-09-23T21:02:51.450Z,12986
2022-09-23T21:08:08.556Z,12893
2022-09-23T21:13:24.088Z,13037
2022-09-23T21:18:35.985Z,13033
2022-09-23T21:23:47.836Z,12992
2022-09-23T21:28:59.322Z,12960
2022-09-23T21:34:11.300Z,12983
2022-09-23T21:39:22.926Z,13070
2022-09-23T21:44:35.230Z,13062
2022-09-23T21:49:51.297Z,13017
2022-09-23T21:55:01.973Z,13047
2022-09-23T22:00:13.849Z,13041
2022-09-23T22:05:25.575Z,12940
2022-09-23T22:10:37.434Z,13090
2022-09-23T22:15:49.365Z,13040
2022-09-23T22:21:01.632Z,13058
2022-09-23T22:26:13.374Z,13042
2022-09-23T22:31:25.321Z,13032
2022-09-23T22:36:37.197Z,12993
2022-09-23T22:41:49.043Z,12986
2022-09-23T22:47:16.021Z,13063
2022-09-23T22:52:25.044Z,12995
2022-09-23T22:57:36.850Z,12992
2022-09-23T23:02:48.639Z,12975
2022-09-23T23:08:01.265Z,12995
2022-09-23T23:13:12.663Z,12994
2022-09-23T23:18:27.227Z,12974
2022-09-23T23:23:38.129Z,13041
2022-09-23T23:28:49.740Z,13016
2022-09-23T23:34:01.558Z,13005
2022-09-23T23:39:13.253Z,13030
2022-09-23T23:44:25.110Z,13006
2022-09-23T23:49:36.731Z,13052
2022-09-23T23:54:48.419Z,12998
2022-09-23T23:59:59.973Z,12993
